createdAt,value
2019-05-03T00:04:12.678Z,63.29
2019-05-03T00:06:42.690Z,64.21
2019-05-03T00:11:49.730Z,65.22
2019-05-03T00:16:54.991Z,65.82
2019-05-03T00:19:24.251Z,65.91
2019-05-03T00:21:53.516Z,66.59
2019-05-03T00:24:22.817Z,66.89
2019-05-03T00:26:52.128Z,67.02
2019-05-03T00:29:22.045Z,67.16
2019-05-03T00:31:52.397Z,67.66
2019-05-03T00:34:26.222Z,67.76
2019-05-03T00:40:05.550Z,67.84
2019-05-03T00:42:34.929Z,68.80
2019-05-03T00:48:01.731Z,69.04
2019-05-03T00:50:32.053Z,69.34
2019-05-03T00:53:02.343Z,70.34
2019-05-03T00:55:32.941Z,70.30
2019-05-03T00:58:03.654Z,70.74
2019-05-03T01:00:52.421Z,71.07
2019-05-03T01:03:23.063Z,71.55
2019-05-03T01:05:53.036Z,72.45
2019-05-03T01:08:23.683Z,72.12
2019-05-03T01:10:52.990Z,72.80
2019-05-03T01:18:53.870Z,72.88
2019-05-03T01:21:23.160Z,72.86
2019-05-03T01:23:52.838Z,72.82
2019-05-03T01:26:23.595Z,73.13
2019-05-03T01:28:52.935Z,73.51
2019-05-03T01:31:22.989Z,73.47
2019-05-03T01:34:12.550Z,73.19
2019-05-03T01:36:42.727Z,72.90
2019-05-03T01:42:14.491Z,74.53
2019-05-03T01:44:43.777Z,74.36
2019-05-03T01:52:41.858Z,74.04
2019-05-03T01:55:13.983Z,74.97
2019-05-03T01:57:41.984Z,74.82
2019-05-03T02:00:51.905Z,75.43
2019-05-03T02:06:02.786Z,76.00
2019-05-03T02:08:32.646Z,75.62
2019-05-03T02:11:03.104Z,76.48
2019-05-03T02:13:32.386Z,76.13
2019-05-03T02:16:02.342Z,76.88
2019-05-03T02:18:32.638Z,76.60
2019-05-03T02:21:01.944Z,76.54
2019-05-03T02:23:31.952Z,76.65
2019-05-03T02:26:03.121Z,76.65
2019-05-03T02:28:33.258Z,77.46
2019-05-03T02:31:03.469Z,77.30
2019-05-03T02:33:33.525Z,77.69
2019-05-03T02:36:03.737Z,78.18
2019-05-03T02:38:34.053Z,77.93
2019-05-03T02:44:00.228Z,78.80
2019-05-03T02:46:48.400Z,78.77
2019-05-03T02:49:36.570Z,78.58
2019-05-03T02:52:06.670Z,78.78
2019-05-03T02:54:36.857Z,78.99
2019-05-03T02:57:06.468Z,79.37
2019-05-03T02:59:37.100Z,79.78
2019-05-03T03:02:06.621Z,79.38
2019-05-03T03:04:37.371Z,79.33
2019-05-03T03:28:26.733Z,81.73
2019-05-03T03:31:37.916Z,81.98
2019-05-03T03:34:49.973Z,81.86
2019-05-03T03:37:15.763Z,82.31
2019-05-03T03:40:06.001Z,82.80
2019-05-03T03:42:38.808Z,82.37
2019-05-03T03:54:26.118Z,82.89
2019-05-03T03:57:35.743Z,82.29
2019-05-03T04:00:19.026Z,81.56
2019-05-03T04:05:36.683Z,81.10
2019-05-03T04:08:05.979Z,80.73
2019-05-03T04:16:49.823Z,81.06
2019-05-03T04:22:25.382Z,80.85
2019-05-03T04:25:05.943Z,80.92
2019-05-03T04:27:36.461Z,80.80
2019-05-03T04:33:01.152Z,81.11
2019-05-03T04:35:30.416Z,81.21
2019-05-03T04:37:59.709Z,81.11
2019-05-03T04:40:29.008Z,81.20
2019-05-03T04:42:58.297Z,80.93
2019-05-03T04:45:27.569Z,80.79
2019-05-03T04:47:56.836Z,80.68
2019-05-03T04:50:26.203Z,80.59
2019-05-03T04:55:46.839Z,79.93
2019-05-03T04:58:16.135Z,79.72
2019-05-03T05:00:46.754Z,79.33
2019-05-03T05:03:36.589Z,78.92
2019-05-03T05:06:06.506Z,78.20
2019-05-03T05:08:36.877Z,77.50
2019-05-03T05:11:10.058Z,77.13
2019-05-03T05:13:37.206Z,76.52
2019-05-03T05:16:06.612Z,75.46
2019-05-03T05:18:55.988Z,74.40
2019-05-03T05:21:29.581Z,73.44
2019-05-03T05:24:05.302Z,71.17
2019-05-03T05:26:54.917Z,69.86
2019-05-03T05:32:21.145Z,68.01
2019-05-03T05:34:50.423Z,67.86
2019-05-03T05:37:38.696Z,66.61
2019-05-03T05:40:47.319Z,66.35
2019-05-03T05:43:16.619Z,62.93
2019-05-03T05:45:45.902Z,65.09
2019-05-03T05:51:07.713Z,60.75
2019-05-03T05:53:39.094Z,61.30
2019-05-03T05:56:27.280Z,61.75
2019-05-03T05:59:15.466Z,61.98
2019-05-03T06:02:04.852Z,59.01
2019-05-03T06:04:34.941Z,58.49
2019-05-03T06:07:24.919Z,60.79
2019-05-03T06:10:14.713Z,59.38
2019-05-03T06:12:52.282Z,59.34
2019-05-03T06:15:44.660Z,57.25
2019-05-03T06:21:17.627Z,58.13
2019-05-03T06:29:25.448Z,56.78
2019-05-03T06:32:15.395Z,57.75
2019-05-03T06:34:45.549Z,58.72
2019-05-03T06:39:51.859Z,54.44
2019-05-03T06:42:22.824Z,55.29
2019-05-03T06:44:54.447Z,55.54
2019-05-03T06:47:25.182Z,56.32
2019-05-03T06:49:55.233Z,54.66
2019-05-03T06:52:29.184Z,50.11
2019-05-03T06:55:00.357Z,50.70
2019-05-03T06:57:27.292Z,54.20
2019-05-03T07:02:55.229Z,54.52
2019-05-03T07:05:44.437Z,53.62
2019-05-03T07:08:34.423Z,54.04
2019-05-03T07:13:54.982Z,54.47
2019-05-03T07:16:25.537Z,54.49
2019-05-03T07:18:58.102Z,53.13
2019-05-03T07:21:25.755Z,49.39
2019-05-03T07:23:55.242Z,49.65
2019-05-03T07:26:25.450Z,50.79
2019-05-03T07:28:55.514Z,51.47
2019-05-03T07:31:25.547Z,50.45
2019-05-03T07:33:55.834Z,49.64
2019-05-03T07:36:28.136Z,49.12
2019-05-03T07:38:56.139Z,50.17
2019-05-03T07:41:44.711Z,49.50
2019-05-03T07:44:15.483Z,44.08
2019-05-03T07:46:45.240Z,49.18
2019-05-03T07:49:15.763Z,49.63
2019-05-03T07:51:45.062Z,48.41
2019-05-03T07:54:15.651Z,47.78
2019-05-03T07:57:05.121Z,47.51
2019-05-03T08:02:25.192Z,45.69
2019-05-03T08:04:54.926Z,46.47
2019-05-03T08:07:25.892Z,44.82
2019-05-03T08:09:56.678Z,44.43
2019-05-03T08:12:26.022Z,46.64
2019-05-03T08:14:55.376Z,46.69
2019-05-03T08:17:25.536Z,46.89
2019-05-03T08:19:55.683Z,47.50
2019-05-03T08:22:25.520Z,41.10
2019-05-03T08:24:55.986Z,47.08
2019-05-03T08:27:25.381Z,43.03
2019-05-03T08:29:55.744Z,44.32
2019-05-03T08:32:44.615Z,44.12
2019-05-03T08:35:32.791Z,43.08
2019-05-03T08:43:28.989Z,43.33
2019-05-03T08:45:58.295Z,45.40
2019-05-03T08:48:27.606Z,45.91
2019-05-03T08:50:56.932Z,42.42
2019-05-03T08:53:26.210Z,45.48
2019-05-03T08:55:55.508Z,43.58
2019-05-03T08:58:25.573Z,45.09
2019-05-03T09:00:55.766Z,45.44
2019-05-03T09:03:25.106Z,43.69
2019-05-03T09:05:56.451Z,45.23
2019-05-03T09:08:25.385Z,46.18
2019-05-03T09:11:15.417Z,45.97
2019-05-03T09:13:50.843Z,47.14
2019-05-03T09:16:20.222Z,46.91
2019-05-03T09:18:49.571Z,44.76
2019-05-03T09:21:18.889Z,47.26
2019-05-03T09:23:48.157Z,47.23
2019-05-03T09:26:17.474Z,46.38
2019-05-03T09:28:46.739Z,46.71
2019-05-03T09:31:16.036Z,44.22
2019-05-03T09:33:45.430Z,46.22
2019-05-03T09:36:14.934Z,47.10
2019-05-03T09:38:45.963Z,48.28
2019-05-03T09:41:16.728Z,48.67
2019-05-03T09:43:46.001Z,49.06
2019-05-03T09:46:15.336Z,48.88
2019-05-03T09:49:12.785Z,50.65
2019-05-03T09:51:35.019Z,50.78
2019-05-03T09:57:15.239Z,48.51
2019-05-03T09:59:56.109Z,48.01
2019-05-03T10:02:15.805Z,48.53
2019-05-03T10:04:45.090Z,48.22
2019-05-03T10:07:15.344Z,47.65
2019-05-03T10:09:45.419Z,48.82
2019-05-03T10:12:19.009Z,47.30
2019-05-03T10:14:48.315Z,49.71
2019-05-03T10:17:36.496Z,47.89
2019-05-03T10:20:45.176Z,49.47
2019-05-03T10:23:35.568Z,49.80
2019-05-03T10:26:05.151Z,50.07
2019-05-03T10:28:35.692Z,51.57
2019-05-03T10:31:07.814Z,52.47
2019-05-03T10:33:55.573Z,52.33
2019-05-03T10:36:25.123Z,52.82
2019-05-03T10:38:55.927Z,53.92
2019-05-03T10:41:25.339Z,54.69
2019-05-03T10:43:55.707Z,55.30
2019-05-03T10:49:15.371Z,55.99
2019-05-03T10:54:38.404Z,55.37
2019-05-03T10:59:48.565Z,54.93
2019-05-03T11:02:36.741Z,54.76
2019-05-03T11:05:06.201Z,53.16
2019-05-03T11:07:35.567Z,52.91
2019-05-03T11:12:54.778Z,51.22
2019-05-03T11:15:25.855Z,53.05
2019-05-03T11:17:55.378Z,51.13
2019-05-03T11:20:45.346Z,48.75
2019-05-03T11:23:14.784Z,50.36
2019-05-03T11:25:45.259Z,49.44
2019-05-03T11:28:35.354Z,49.84
2019-05-03T11:31:24.830Z,48.96
2019-05-03T11:36:49.885Z,49.39
2019-05-03T11:39:19.191Z,47.46
2019-05-03T11:44:40.085Z,50.02
2019-05-03T11:47:09.587Z,47.84
2019-05-03T11:49:38.918Z,47.83
2019-05-03T11:52:08.198Z,47.76
2019-05-03T11:54:37.480Z,46.68
2019-05-03T12:03:02.283Z,48.30
2019-05-03T12:05:31.667Z,48.38
2019-05-03T12:08:00.975Z,49.10
2019-05-03T12:10:44.888Z,47.20
2019-05-03T12:13:20.353Z,48.37
2019-05-03T12:15:49.646Z,49.16
2019-05-03T12:18:19.292Z,48.70
2019-05-03T12:20:50.848Z,49.04
2019-05-03T12:23:21.765Z,49.51
2019-05-03T12:25:52.735Z,49.85
2019-05-03T12:31:25.775Z,47.69
2019-05-03T12:33:42.464Z,49.46
2019-05-03T12:36:11.771Z,48.51
2019-05-03T12:38:41.097Z,50.10
2019-05-03T12:43:58.723Z,50.40
2019-05-03T12:46:28.020Z,49.83
2019-05-03T12:48:57.311Z,48.89
2019-05-03T12:51:26.627Z,47.43
2019-05-03T12:53:55.911Z,47.65
2019-05-03T12:56:32.337Z,46.67
2019-05-03T13:02:09.196Z,47.18
2019-05-03T13:04:38.913Z,44.93
2019-05-03T13:07:18.503Z,45.50
2019-05-03T13:09:47.817Z,46.35
2019-05-03T13:15:08.043Z,44.76
2019-05-03T13:17:37.820Z,44.56
2019-05-03T13:20:47.258Z,45.67
2019-05-03T13:23:16.592Z,44.22
2019-05-03T13:25:45.938Z,45.90
2019-05-03T13:28:15.417Z,44.19
2019-05-03T13:30:45.349Z,43.79
2019-05-03T13:33:15.785Z,45.56
2019-05-03T13:35:45.118Z,45.66
2019-05-03T13:38:14.450Z,46.39
2019-05-03T13:40:45.303Z,47.78
2019-05-03T13:43:15.159Z,45.23
2019-05-03T13:45:45.831Z,45.96
2019-05-03T13:48:19.894Z,47.28
2019-05-03T13:50:46.185Z,47.04
2019-05-03T13:53:16.141Z,47.63
2019-05-03T13:55:46.627Z,47.33
2019-05-03T13:58:15.913Z,47.48
2019-05-03T14:00:45.501Z,46.29
2019-05-03T14:03:15.232Z,47.03
2019-05-03T14:05:45.826Z,46.46
2019-05-03T14:08:17.272Z,47.10
2019-05-03T14:10:46.581Z,47.25
2019-05-03T14:13:15.922Z,47.27
2019-05-03T14:15:45.427Z,46.36
2019-05-03T14:18:15.438Z,46.70
2019-05-03T14:21:05.133Z,47.16
2019-05-03T14:23:53.428Z,46.77
2019-05-03T14:26:24.514Z,46.33
2019-05-03T14:28:54.912Z,47.93
2019-05-03T14:31:25.240Z,47.64
2019-05-03T14:33:56.065Z,47.53
2019-05-03T14:36:26.904Z,48.51
2019-05-03T14:38:56.196Z,49.41
2019-05-03T14:41:25.632Z,50.12
2019-05-03T14:46:43.208Z,51.39
2019-05-03T14:49:14.709Z,51.39
2019-05-03T14:51:45.417Z,53.58
2019-05-03T14:54:14.650Z,54.30
2019-05-03T14:57:02.845Z,53.75
2019-05-03T14:59:51.052Z,53.38
2019-05-03T15:05:15.215Z,52.34
2019-05-03T15:07:45.885Z,49.51
2019-05-03T15:10:15.573Z,49.31
2019-05-03T15:12:45.278Z,48.28
2019-05-03T15:15:28.932Z,48.55
2019-05-03T15:17:58.383Z,48.47
2019-05-03T15:20:27.690Z,48.40
2019-05-03T15:23:05.618Z,48.85
2019-05-03T15:25:35.422Z,49.86
2019-05-03T15:28:05.187Z,49.54
2019-05-03T15:30:35.839Z,51.12
2019-05-03T15:33:05.531Z,50.70
2019-05-03T15:35:35.283Z,51.60
2019-05-03T15:38:06.017Z,52.64
2019-05-03T15:40:35.336Z,52.67
2019-05-03T15:43:28.446Z,52.21
2019-05-03T15:46:14.701Z,52.06
2019-05-03T15:48:47.415Z,51.93
2019-05-03T15:51:16.714Z,50.94
2019-05-03T15:53:46.033Z,52.27
2019-05-03T15:56:15.415Z,53.23
2019-05-03T15:58:46.812Z,53.20
2019-05-03T16:01:15.761Z,53.83
2019-05-03T16:04:04.809Z,54.14
2019-05-03T16:06:35.041Z,54.29
2019-05-03T16:12:14.513Z,55.01
2019-05-03T16:14:44.569Z,57.45
2019-05-03T16:17:14.987Z,58.38
2019-05-03T16:19:45.174Z,60.00
2019-05-03T16:22:15.321Z,60.40
2019-05-03T16:24:47.023Z,61.08
2019-05-03T16:33:04.663Z,66.40
2019-05-03T16:35:34.991Z,66.09
2019-05-03T16:38:06.190Z,65.87
2019-05-03T16:40:55.678Z,66.46
2019-05-03T16:43:25.647Z,67.44
2019-05-03T16:45:56.069Z,66.59
2019-05-03T16:48:36.905Z,68.51
2019-05-03T16:51:06.299Z,68.51
2019-05-03T16:53:35.600Z,66.69
2019-05-03T16:56:05.037Z,70.38
2019-05-03T16:58:35.372Z,69.32
2019-05-03T17:01:05.564Z,70.04
2019-05-03T17:03:54.915Z,69.70
2019-05-03T17:06:45.181Z,70.14
2019-05-03T17:09:35.358Z,70.80
2019-05-03T17:12:25.608Z,72.77
2019-05-03T17:14:57.060Z,74.83
2019-05-03T17:17:26.076Z,75.46
2019-05-03T17:19:55.405Z,78.12
2019-05-03T17:22:45.036Z,80.87
2019-05-03T17:25:15.079Z,81.43
2019-05-03T17:27:44.897Z,80.96
2019-05-03T17:33:25.300Z,81.64
2019-05-03T17:35:55.333Z,80.74
2019-05-03T17:38:24.636Z,80.62
2019-05-03T17:41:14.797Z,79.35
2019-05-03T17:43:48.128Z,81.20
2019-05-03T17:46:17.497Z,80.32
2019-05-03T17:48:46.783Z,81.96
2019-05-03T17:51:46.752Z,80.54
2019-05-03T17:54:35.764Z,80.36
2019-05-03T17:57:24.927Z,81.83
2019-05-03T18:05:47.997Z,83.38
2019-05-03T18:11:16.726Z,83.60
2019-05-03T18:13:46.060Z,82.56
2019-05-03T18:16:15.401Z,84.34
2019-05-03T18:18:45.433Z,83.34
2019-05-03T18:21:15.944Z,83.56
2019-05-03T18:23:45.587Z,84.23
2019-05-03T18:26:16.271Z,86.33
2019-05-03T18:28:45.596Z,87.53
2019-05-03T18:31:14.891Z,86.14
2019-05-03T18:33:44.406Z,86.15
2019-05-03T18:36:14.780Z,86.35
2019-05-03T18:41:34.593Z,87.75
2019-05-03T18:44:23.176Z,86.54
2019-05-03T18:46:55.260Z,87.52
2019-05-03T18:49:24.849Z,87.28
2019-05-03T18:51:55.620Z,87.67
2019-05-03T18:54:24.948Z,87.93
2019-05-03T18:56:55.737Z,87.81
2019-05-03T18:59:25.375Z,87.22
2019-05-03T19:01:55.206Z,88.45
2019-05-03T19:10:02.258Z,88.21
2019-05-03T19:15:26.396Z,90.02
2019-05-03T19:20:37.775Z,89.54
2019-05-03T19:23:07.290Z,90.54
2019-05-03T19:25:45.784Z,91.33
2019-05-03T19:28:08.238Z,92.47
2019-05-03T19:33:28.700Z,90.18
2019-05-03T19:36:00.172Z,90.47
2019-05-03T19:41:17.260Z,90.68
2019-05-03T19:43:46.558Z,90.62
2019-05-03T19:46:16.609Z,91.10
2019-05-03T19:48:46.902Z,91.24
2019-05-03T19:51:36.510Z,91.04
2019-05-03T19:54:06.179Z,91.02
2019-05-03T19:56:37.559Z,90.49
2019-05-03T20:04:35.116Z,92.28
2019-05-03T20:07:25.175Z,92.47
2019-05-03T20:09:54.495Z,91.60
2019-05-03T20:12:24.602Z,94.85
2019-05-03T20:14:54.759Z,92.49
2019-05-03T20:17:24.087Z,92.07
2019-05-03T20:19:54.461Z,92.90
2019-05-03T20:22:24.566Z,92.53
2019-05-03T20:24:55.264Z,92.82
2019-05-03T20:27:24.916Z,93.98
2019-05-03T20:29:55.424Z,93.06
2019-05-03T20:32:25.285Z,92.10
2019-05-03T20:34:55.159Z,93.76
2019-05-03T20:37:25.551Z,93.10
2019-05-03T20:39:54.809Z,93.00
2019-05-03T20:42:44.777Z,93.37
2019-05-03T20:50:48.262Z,95.30
2019-05-03T20:53:17.547Z,94.91
2019-05-03T20:55:46.857Z,96.02
2019-05-03T20:58:16.186Z,94.50
2019-05-03T21:00:45.492Z,93.96
2019-05-03T21:03:15.310Z,94.73
2019-05-03T21:05:45.875Z,94.34
2019-05-03T21:08:15.196Z,94.02
2019-05-03T21:10:44.755Z,93.80
2019-05-03T21:19:05.000Z,95.54
2019-05-03T21:21:54.980Z,95.84
2019-05-03T21:24:43.209Z,95.72
2019-05-03T21:27:12.507Z,95.11
2019-05-03T21:30:00.744Z,94.88
2019-05-03T21:32:30.050Z,94.26
2019-05-03T21:34:59.374Z,93.95
2019-05-03T21:37:40.535Z,94.08
2019-05-03T21:40:01.894Z,95.62
2019-05-03T21:42:31.247Z,94.05
2019-05-03T21:45:00.550Z,93.81
2019-05-03T21:50:51.752Z,93.17
2019-05-03T21:56:35.722Z,93.98
2019-05-03T21:59:06.528Z,93.41
2019-05-03T22:04:17.394Z,94.51
2019-05-03T22:06:46.894Z,93.30
2019-05-03T22:09:16.390Z,93.97
2019-05-03T22:11:47.263Z,93.17
2019-05-03T22:17:29.470Z,93.79
2019-05-03T22:28:17.874Z,93.76
2019-05-03T22:30:47.161Z,93.89
2019-05-03T22:33:16.445Z,95.70
2019-05-03T22:35:45.779Z,97.36
2019-05-03T22:38:15.059Z,96.75
2019-05-03T22:40:46.753Z,97.66
2019-05-03T22:43:15.368Z,97.56
2019-05-03T22:48:32.959Z,98.95
2019-05-03T22:51:02.239Z,98.52
2019-05-03T22:53:31.515Z,99.50
2019-05-03T22:56:00.832Z,99.50
2019-05-03T22:58:30.113Z,99.14
2019-05-03T23:00:59.433Z,99.56
2019-05-03T23:06:19.471Z,98.76
2019-05-03T23:08:39.948Z,98.94
2019-05-03T23:11:48.569Z,99.12
2019-05-03T23:14:17.828Z,98.71
2019-05-03T23:16:47.117Z,100.00
2019-05-03T23:19:16.407Z,99.80
2019-05-03T23:24:43.117Z,100.00
2019-05-03T23:27:14.329Z,99.65
2019-05-03T23:29:45.282Z,98.64
2019-05-03T23:32:15.167Z,99.52
2019-05-03T23:34:46.379Z,98.97
2019-05-03T23:37:16.609Z,100.00
2019-05-03T23:39:45.888Z,100.00
2019-05-03T23:42:15.537Z,100.00
2019-05-03T23:44:46.277Z,100.00
2019-05-03T23:47:34.618Z,99.19
2019-05-03T23:52:54.536Z,100.00
2019-05-03T23:55:44.899Z,100.00
2019-05-03T23:58:14.823Z,100.00
